createdAt,value
2022-07-29T00:01:40.426Z,59.84
2022-07-29T00:04:06.669Z,60.74
2022-07-29T00:06:32.882Z,61.46
2022-07-29T00:08:59.067Z,62.03
2022-07-29T00:11:25.227Z,62.07
2022-07-29T00:13:51.409Z,62.56
2022-07-29T00:16:17.689Z,64.82
2022-07-29T00:18:43.944Z,65.45
2022-07-29T00:21:10.097Z,67.33
2022-07-29T00:23:36.947Z,67.83
2022-07-29T00:26:03.231Z,68.48
2022-07-29T00:28:29.423Z,68.27
2022-07-29T00:30:55.592Z,68.43
2022-07-29T00:33:21.781Z,68.61
2022-07-29T00:35:48.018Z,68.82
2022-07-29T00:38:14.199Z,69.81
2022-07-29T00:40:40.384Z,70.09
2022-07-29T00:43:10.169Z,70.87
2022-07-29T00:45:36.333Z,71.46
2022-07-29T00:48:02.516Z,72.01
2022-07-29T00:50:28.738Z,72.81
2022-07-29T00:52:54.898Z,73.37
2022-07-29T00:55:21.074Z,73.59
2022-07-29T00:57:47.277Z,74.40
2022-07-29T01:00:13.457Z,75.81
2022-07-29T01:02:39.688Z,76.26
2022-07-29T01:05:05.968Z,76.41
2022-07-29T01:07:32.124Z,75.99
2022-07-29T01:09:58.388Z,77.04
2022-07-29T01:12:24.565Z,77.72
2022-07-29T01:14:50.732Z,77.21
2022-07-29T01:17:17.000Z,76.69
2022-07-29T01:19:43.155Z,77.46
2022-07-29T01:22:09.354Z,77.52
2022-07-29T01:24:35.526Z,76.51
2022-07-29T01:27:01.720Z,77.30
2022-07-29T01:29:35.877Z,77.51
2022-07-29T01:32:05.285Z,77.31
2022-07-29T01:34:31.475Z,77.20
2022-07-29T01:36:57.745Z,78.46
2022-07-29T01:39:23.935Z,78.36
2022-07-29T01:41:50.104Z,78.26
2022-07-29T01:44:16.560Z,77.78
2022-07-29T01:46:42.984Z,78.95
2022-07-29T01:49:09.206Z,80.15
2022-07-29T01:51:35.416Z,79.99
2022-07-29T01:54:01.598Z,79.70
2022-07-29T01:56:27.758Z,80.06
2022-07-29T01:58:53.949Z,81.29
2022-07-29T02:01:20.132Z,81.04
2022-07-29T02:03:46.409Z,81.22
2022-07-29T02:06:12.572Z,81.41
2022-07-29T02:08:38.783Z,80.36
2022-07-29T02:11:04.974Z,81.88
2022-07-29T02:13:31.135Z,82.15
2022-07-29T02:15:57.453Z,81.87
2022-07-29T02:18:23.660Z,82.36
2022-07-29T02:20:49.899Z,82.01
2022-07-29T02:23:16.112Z,82.38
2022-07-29T02:25:42.348Z,84.20
2022-07-29T02:28:09.059Z,83.95
2022-07-29T02:30:35.252Z,84.77
2022-07-29T02:33:01.397Z,87.49
2022-07-29T02:35:27.588Z,89.23
2022-07-29T02:37:53.894Z,88.67
2022-07-29T02:40:20.053Z,90.55
2022-07-29T02:42:46.258Z,92.64
2022-07-29T02:45:12.434Z,92.39
2022-07-29T02:47:41.448Z,91.36
2022-07-29T02:50:08.172Z,92.81
2022-07-29T02:52:34.402Z,94.32
2022-07-29T02:55:00.598Z,92.53
2022-07-29T02:57:26.758Z,92.82
2022-07-29T02:59:52.921Z,93.25
2022-07-29T03:02:19.202Z,94.29
2022-07-29T03:04:45.469Z,95.39
2022-07-29T03:07:11.733Z,95.93
2022-07-29T03:09:40.661Z,94.47
2022-07-29T03:12:06.863Z,95.84
2022-07-29T03:14:33.058Z,96.71
2022-07-29T03:16:59.243Z,96.39
2022-07-29T03:19:25.407Z,95.73
2022-07-29T03:21:51.592Z,97.51
2022-07-29T03:24:18.087Z,97.87
2022-07-29T03:26:44.547Z,97.86
2022-07-29T03:29:10.721Z,98.41
2022-07-29T03:31:39.765Z,100.00
2022-07-29T03:34:09.839Z,99.69
2022-07-29T03:36:36.015Z,99.74
2022-07-29T03:39:02.194Z,100.00
2022-07-29T03:41:28.412Z,100.00
2022-07-29T03:43:54.624Z,100.00
2022-07-29T03:46:20.880Z,100.00
2022-07-29T03:48:47.103Z,100.00
2022-07-29T03:51:13.318Z,100.00
2022-07-29T03:53:39.505Z,100.00
2022-07-29T03:56:05.700Z,98.64
2022-07-29T03:58:31.872Z,97.72
2022-07-29T04:00:58.330Z,100.00
2022-07-29T04:03:24.612Z,100.00
2022-07-29T04:05:50.811Z,100.00
2022-07-29T04:08:17.008Z,100.00
2022-07-29T04:10:43.166Z,100.00
2022-07-29T04:13:09.381Z,100.00
2022-07-29T04:15:35.578Z,100.00
2022-07-29T04:18:01.806Z,100.00
2022-07-29T04:20:27.990Z,100.00
2022-07-29T04:22:54.158Z,100.00
2022-07-29T04:25:20.343Z,100.00
2022-07-29T04:27:46.510Z,100.00
2022-07-29T04:30:12.736Z,100.00
2022-07-29T04:32:38.927Z,100.00
2022-07-29T04:35:05.087Z,100.00
2022-07-29T04:37:31.251Z,100.00
2022-07-29T04:39:57.458Z,100.00
2022-07-29T04:42:27.625Z,100.00
2022-07-29T04:44:55.451Z,100.00
2022-07-29T04:47:21.624Z,100.00
2022-07-29T04:49:47.829Z,100.00
2022-07-29T04:52:14.046Z,100.00
2022-07-29T04:54:40.200Z,100.00
2022-07-29T04:57:06.361Z,100.00
2022-07-29T04:59:32.560Z,100.00
2022-07-29T05:01:58.760Z,100.00
2022-07-29T05:04:25.040Z,100.00
2022-07-29T05:06:51.398Z,100.00
2022-07-29T05:09:17.598Z,100.00
2022-07-29T05:11:43.792Z,100.00
2022-07-29T05:14:09.946Z,100.00
2022-07-29T05:16:36.115Z,100.00
2022-07-29T05:19:02.327Z,100.00
2022-07-29T05:21:28.525Z,100.00
2022-07-29T05:23:54.689Z,100.00
2022-07-29T05:26:20.910Z,100.00
2022-07-29T05:28:47.162Z,100.00
2022-07-29T05:31:13.358Z,100.00
2022-07-29T05:33:39.632Z,100.00
2022-07-29T05:36:05.794Z,98.79
2022-07-29T05:38:31.957Z,99.28
2022-07-29T05:40:58.145Z,94.25
2022-07-29T05:43:24.335Z,94.62
2022-07-29T05:45:50.598Z,93.10
2022-07-29T05:48:16.857Z,86.74
2022-07-29T05:50:44.185Z,90.65
2022-07-29T05:53:19.192Z,89.75
2022-07-29T05:55:46.820Z,83.34
2022-07-29T05:58:13.422Z,82.35
2022-07-29T06:00:39.601Z,79.97
2022-07-29T06:03:05.768Z,80.43
2022-07-29T06:05:31.929Z,81.59
2022-07-29T06:07:58.128Z,79.08
2022-07-29T06:10:26.989Z,81.61
2022-07-29T06:12:53.357Z,81.18
2022-07-29T06:15:19.562Z,79.60
2022-07-29T06:18:00.524Z,79.32
2022-07-29T06:20:27.639Z,78.99
2022-07-29T06:22:53.790Z,77.20
2022-07-29T06:25:19.942Z,76.89
2022-07-29T06:27:46.126Z,74.11
2022-07-29T06:30:12.302Z,73.96
2022-07-29T06:32:42.929Z,75.26
2022-07-29T06:35:39.436Z,71.68
2022-07-29T06:37:55.650Z,72.51
2022-07-29T06:40:25.887Z,70.15
2022-07-29T06:42:52.120Z,67.81
2022-07-29T06:45:18.319Z,70.19
2022-07-29T06:47:47.247Z,69.41
2022-07-29T06:50:13.452Z,70.85
2022-07-29T06:52:39.649Z,73.51
2022-07-29T06:55:05.858Z,71.96
2022-07-29T06:57:44.233Z,71.39
2022-07-29T07:00:10.430Z,70.93
2022-07-29T07:02:37.146Z,71.79
2022-07-29T07:05:03.373Z,69.93
2022-07-29T07:07:29.555Z,72.29
2022-07-29T07:09:55.748Z,70.27
2022-07-29T07:12:21.916Z,71.01
2022-07-29T07:14:48.114Z,72.40
2022-07-29T07:17:14.312Z,69.50
2022-07-29T07:19:40.511Z,70.75
2022-07-29T07:22:09.030Z,68.30
2022-07-29T07:24:35.338Z,67.85
2022-07-29T07:27:01.601Z,69.89
2022-07-29T07:29:27.820Z,67.83
2022-07-29T07:31:58.832Z,69.74
2022-07-29T07:34:29.459Z,69.97
2022-07-29T07:36:56.091Z,69.17
2022-07-29T07:39:22.322Z,68.19
2022-07-29T07:41:48.491Z,67.85
2022-07-29T07:44:16.195Z,66.81
2022-07-29T07:46:42.550Z,65.20
2022-07-29T07:49:09.172Z,65.49
2022-07-29T07:51:37.429Z,66.93
2022-07-29T07:54:03.643Z,68.11
2022-07-29T07:56:35.050Z,71.46
2022-07-29T07:59:01.539Z,70.89
2022-07-29T08:01:27.818Z,65.87
2022-07-29T08:03:54.063Z,62.31
2022-07-29T08:06:20.247Z,61.54
2022-07-29T08:08:51.886Z,63.83
2022-07-29T08:11:21.334Z,62.45
2022-07-29T08:13:58.055Z,62.24
2022-07-29T08:16:26.727Z,62.72
2022-07-29T08:19:15.549Z,62.78
2022-07-29T08:24:25.916Z,60.04
2022-07-29T08:26:52.195Z,58.75
2022-07-29T08:29:20.534Z,58.03
2022-07-29T08:31:50.046Z,61.09
2022-07-29T08:34:16.451Z,63.89
2022-07-29T08:36:42.678Z,65.51
2022-07-29T08:39:08.934Z,65.74
2022-07-29T08:41:35.159Z,64.91
2022-07-29T08:44:01.385Z,63.49
2022-07-29T08:46:27.610Z,63.38
2022-07-29T08:48:53.824Z,59.68
2022-07-29T08:51:20.195Z,64.16
2022-07-29T08:53:46.513Z,62.24
2022-07-29T08:56:17.592Z,63.52
2022-07-29T08:58:54.257Z,62.64
2022-07-29T09:01:20.585Z,61.21
2022-07-29T09:03:54.277Z,60.84
2022-07-29T09:09:05.375Z,67.52
2022-07-29T09:11:31.638Z,61.61
2022-07-29T09:13:57.885Z,61.62
2022-07-29T09:16:50.830Z,60.21
2022-07-29T09:19:18.002Z,60.78
2022-07-29T09:21:53.060Z,60.38
2022-07-29T09:24:20.732Z,62.61
2022-07-29T09:26:49.834Z,58.05
2022-07-29T09:29:16.056Z,56.78
2022-07-29T09:31:42.364Z,59.15
2022-07-29T09:34:08.645Z,57.63
2022-07-29T09:36:37.647Z,58.70
2022-07-29T09:39:03.884Z,58.56
2022-07-29T09:44:13.036Z,56.39
2022-07-29T09:46:40.326Z,56.29
2022-07-29T09:49:06.671Z,55.03
2022-07-29T09:51:38.473Z,55.14
2022-07-29T09:54:04.908Z,55.15
2022-07-29T09:56:39.127Z,52.09
2022-07-29T09:59:08.505Z,53.30
2022-07-29T10:01:34.746Z,51.61
2022-07-29T10:04:01.202Z,53.40
2022-07-29T10:06:41.540Z,52.78
2022-07-29T10:09:07.837Z,52.67
2022-07-29T10:11:48.364Z,50.48
2022-07-29T10:14:15.640Z,52.04
2022-07-29T10:16:44.205Z,50.65
2022-07-29T10:19:10.507Z,53.36
2022-07-29T10:21:36.866Z,50.83
2022-07-29T10:24:05.900Z,50.00
2022-07-29T10:26:39.598Z,50.24
2022-07-29T10:29:05.912Z,48.78
2022-07-29T10:31:33.773Z,47.67
2022-07-29T10:34:01.465Z,47.78
2022-07-29T10:36:27.709Z,47.86
2022-07-29T10:39:04.466Z,48.86
2022-07-29T10:41:43.932Z,46.64
2022-07-29T10:44:16.104Z,47.47
2022-07-29T10:46:46.618Z,46.05
2022-07-29T10:49:15.208Z,45.67
2022-07-29T10:54:22.006Z,46.73
2022-07-29T10:56:48.275Z,47.83
2022-07-29T10:59:16.916Z,44.99
2022-07-29T11:01:46.411Z,44.38
2022-07-29T11:04:18.630Z,44.53
2022-07-29T11:06:49.110Z,44.70
2022-07-29T11:09:15.324Z,44.45
2022-07-29T11:11:43.953Z,45.47
2022-07-29T11:14:14.088Z,42.62
2022-07-29T11:16:40.330Z,45.04
2022-07-29T11:19:07.575Z,43.79
2022-07-29T11:21:51.666Z,42.92
2022-07-29T11:24:28.942Z,42.34
2022-07-29T11:27:00.522Z,42.03
2022-07-29T11:29:26.993Z,42.05
2022-07-29T11:31:53.801Z,44.42
2022-07-29T11:34:21.288Z,45.54
2022-07-29T11:36:48.817Z,47.39
2022-07-29T11:39:15.203Z,43.68
2022-07-29T11:41:41.418Z,43.52
2022-07-29T11:44:09.164Z,44.59
2022-07-29T11:46:35.348Z,44.22
2022-07-29T11:49:02.303Z,45.14
2022-07-29T11:51:35.516Z,43.01
2022-07-29T11:54:05.456Z,44.53
2022-07-29T11:56:39.151Z,43.54
2022-07-29T11:59:08.477Z,44.28
2022-07-29T12:01:34.816Z,43.54
2022-07-29T12:04:01.082Z,44.90
2022-07-29T12:06:27.350Z,42.24
2022-07-29T12:08:53.579Z,42.86
2022-07-29T12:11:21.323Z,43.52
2022-07-29T12:13:49.237Z,42.29
2022-07-29T12:16:15.973Z,43.51
2022-07-29T12:18:44.973Z,43.09
2022-07-29T12:21:12.553Z,41.28
2022-07-29T12:23:39.000Z,42.62
2022-07-29T12:26:05.216Z,42.75
2022-07-29T12:28:33.972Z,42.09
2022-07-29T12:31:01.263Z,40.18
2022-07-29T12:33:28.248Z,40.47
2022-07-29T12:36:14.167Z,40.36
2022-07-29T12:38:43.849Z,39.46
2022-07-29T12:41:10.017Z,40.75
2022-07-29T12:43:36.215Z,39.76
2022-07-29T12:46:02.451Z,40.66
2022-07-29T12:48:28.636Z,38.82
2022-07-29T12:50:54.892Z,38.94
2022-07-29T12:53:21.105Z,39.77
2022-07-29T12:55:47.522Z,40.05
2022-07-29T12:58:13.805Z,40.51
2022-07-29T13:00:41.057Z,40.73
2022-07-29T13:03:08.086Z,40.49
2022-07-29T13:05:34.281Z,41.80
2022-07-29T13:08:00.493Z,40.81
2022-07-29T13:10:26.799Z,40.25
2022-07-29T13:12:53.062Z,40.22
2022-07-29T13:15:19.236Z,40.45
2022-07-29T13:17:45.435Z,41.91
2022-07-29T13:20:14.248Z,40.83
2022-07-29T13:22:40.451Z,40.83
2022-07-29T13:25:06.621Z,41.08
2022-07-29T13:27:32.827Z,41.43
2022-07-29T13:29:59.018Z,43.52
2022-07-29T13:32:27.844Z,42.79
2022-07-29T13:34:54.748Z,41.71
2022-07-29T13:37:20.906Z,43.35
2022-07-29T13:39:51.315Z,44.68
2022-07-29T13:42:19.486Z,42.93
2022-07-29T13:44:45.668Z,41.78
2022-07-29T13:47:11.855Z,42.33
2022-07-29T13:49:40.104Z,43.00
2022-07-29T13:52:06.323Z,41.91
2022-07-29T13:54:38.817Z,43.83
2022-07-29T13:57:08.022Z,42.25
2022-07-29T13:59:34.497Z,42.46
2022-07-29T14:02:04.874Z,40.82
2022-07-29T14:10:05.707Z,38.22
2022-07-29T14:18:15.577Z,37.50
2022-07-29T14:23:30.621Z,38.62
2022-07-29T14:28:47.331Z,37.65
2022-07-29T14:31:19.828Z,37.58
2022-07-29T14:33:49.151Z,37.82
2022-07-29T14:37:15.784Z,39.19
2022-07-29T14:42:02.436Z,38.80
2022-07-29T14:44:28.670Z,39.30
2022-07-29T14:46:54.924Z,41.05
2022-07-29T14:49:23.396Z,39.63
2022-07-29T14:51:49.608Z,40.76
2022-07-29T14:54:16.949Z,39.86
2022-07-29T14:56:46.651Z,38.61
2022-07-29T14:59:23.470Z,38.15
2022-07-29T15:01:57.200Z,38.30
2022-07-29T15:04:23.626Z,37.57
2022-07-29T15:12:14.555Z,37.68
2022-07-29T15:14:42.217Z,40.27
2022-07-29T15:17:13.561Z,38.59
2022-07-29T15:19:45.031Z,35.71
2022-07-29T15:22:11.342Z,36.78
2022-07-29T15:24:37.578Z,37.56
2022-07-29T15:27:03.821Z,36.29
2022-07-29T15:29:30.026Z,35.94
2022-07-29T15:31:56.703Z,35.58
2022-07-29T15:34:27.381Z,35.37
2022-07-29T15:36:54.126Z,35.71
2022-07-29T15:39:20.511Z,33.10
2022-07-29T15:41:46.723Z,34.02
2022-07-29T15:44:19.675Z,31.97
2022-07-29T15:46:48.659Z,33.19
2022-07-29T15:49:16.073Z,33.43
2022-07-29T15:51:44.557Z,33.08
2022-07-29T15:54:10.852Z,32.63
2022-07-29T15:56:38.503Z,33.83
2022-07-29T15:59:04.768Z,33.13
2022-07-29T16:01:31.176Z,33.48
2022-07-29T16:03:58.903Z,33.53
2022-07-29T16:06:25.167Z,33.30
2022-07-29T16:08:51.393Z,33.19
2022-07-29T16:11:17.649Z,33.43
2022-07-29T16:13:44.062Z,32.68
2022-07-29T16:16:12.637Z,32.81
2022-07-29T16:21:19.118Z,34.97
2022-07-29T16:23:54.140Z,33.94
2022-07-29T16:26:26.655Z,31.91
2022-07-29T16:28:54.402Z,31.82
2022-07-29T16:31:21.049Z,31.38
2022-07-29T16:34:09.875Z,31.56
2022-07-29T16:36:36.525Z,33.73
2022-07-29T16:39:02.751Z,31.86
2022-07-29T16:41:36.193Z,31.22
2022-07-29T16:44:02.470Z,30.61
2022-07-29T16:49:11.862Z,29.65
2022-07-29T16:51:45.018Z,29.88
2022-07-29T16:54:11.229Z,30.00
2022-07-29T16:56:37.543Z,29.74
2022-07-29T16:59:03.783Z,30.17
2022-07-29T17:01:32.917Z,30.26
2022-07-29T17:04:00.480Z,30.73
2022-07-29T17:06:27.015Z,30.45
2022-07-29T17:08:53.546Z,30.71
2022-07-29T17:11:19.871Z,30.26
2022-07-29T17:13:46.045Z,30.80
2022-07-29T17:16:12.576Z,30.29
2022-07-29T17:18:38.833Z,30.72
2022-07-29T17:21:05.061Z,29.58
2022-07-29T17:23:31.222Z,30.38
2022-07-29T17:25:57.384Z,29.82
2022-07-29T17:28:23.949Z,29.27
2022-07-29T17:30:50.435Z,30.19
2022-07-29T17:33:16.619Z,29.74
2022-07-29T17:35:42.839Z,29.14
2022-07-29T17:38:08.994Z,29.55
2022-07-29T17:40:38.185Z,30.01
2022-07-29T17:43:04.352Z,28.49
2022-07-29T17:45:48.753Z,28.99
2022-07-29T17:48:16.722Z,30.11
2022-07-29T17:50:45.728Z,28.61
2022-07-29T17:53:16.224Z,29.17
2022-07-29T17:55:45.136Z,29.86
2022-07-29T17:58:18.743Z,28.59
2022-07-29T18:00:45.034Z,28.51
2022-07-29T18:03:11.423Z,28.20
2022-07-29T18:05:39.537Z,29.73
2022-07-29T18:08:11.366Z,29.83
2022-07-29T18:10:46.571Z,29.55
2022-07-29T18:13:19.953Z,29.31
2022-07-29T18:15:46.313Z,30.25
2022-07-29T18:18:12.620Z,29.92
2022-07-29T18:20:38.883Z,31.55
2022-07-29T18:23:07.235Z,31.29
2022-07-29T18:25:33.495Z,35.12
2022-07-29T18:39:33.250Z,38.07
2022-07-29T18:41:59.547Z,37.34
2022-07-29T18:44:28.535Z,39.12
2022-07-29T18:46:55.033Z,39.98
2022-07-29T18:49:21.467Z,40.11
2022-07-29T18:51:47.765Z,41.08
2022-07-29T18:54:15.253Z,41.92
2022-07-29T18:56:45.028Z,42.49
2022-07-29T18:59:16.057Z,42.84
2022-07-29T19:01:42.448Z,43.12
2022-07-29T19:04:10.695Z,44.94
2022-07-29T19:06:37.007Z,44.00
2022-07-29T19:11:56.303Z,47.40
2022-07-29T19:14:24.486Z,48.25
2022-07-29T19:16:54.507Z,49.35
2022-07-29T19:19:20.713Z,49.56
2022-07-29T19:21:47.138Z,50.93
2022-07-29T19:24:15.588Z,51.55
2022-07-29T19:26:44.186Z,52.33
2022-07-29T19:29:10.381Z,53.11
2022-07-29T19:31:36.688Z,52.98
2022-07-29T19:34:02.894Z,54.21
2022-07-29T19:36:29.079Z,53.63
2022-07-29T19:38:55.403Z,55.13
2022-07-29T19:41:21.604Z,54.98
2022-07-29T19:43:53.133Z,55.60
2022-07-29T19:46:19.627Z,55.35
2022-07-29T19:48:49.580Z,55.56
2022-07-29T19:51:28.845Z,56.81
2022-07-29T20:02:20.267Z,56.57
2022-07-29T20:04:49.456Z,58.79
2022-07-29T20:07:18.414Z,57.79
2022-07-29T20:09:46.623Z,58.20
2022-07-29T20:12:23.502Z,58.47
2022-07-29T20:14:49.765Z,58.04
2022-07-29T20:17:29.206Z,58.87
2022-07-29T20:19:58.934Z,59.81
2022-07-29T20:22:25.316Z,60.55
2022-07-29T20:24:51.600Z,60.29
2022-07-29T20:27:17.930Z,61.41
2022-07-29T20:29:44.484Z,60.96
2022-07-29T20:32:10.732Z,61.74
2022-07-29T20:34:44.132Z,64.34
2022-07-29T20:37:17.987Z,66.13
2022-07-29T20:39:45.570Z,68.19
2022-07-29T20:42:12.746Z,69.57
2022-07-29T20:44:38.975Z,70.16
2022-07-29T20:47:05.223Z,71.15
2022-07-29T20:49:31.422Z,71.81
2022-07-29T20:51:57.719Z,72.07
2022-07-29T20:54:23.957Z,72.75
2022-07-29T20:56:51.603Z,73.38
2022-07-29T20:59:17.979Z,74.29
2022-07-29T21:01:44.229Z,74.64
2022-07-29T21:04:10.506Z,75.90
2022-07-29T21:06:36.716Z,76.10
2022-07-29T21:09:02.964Z,74.82
2022-07-29T21:11:44.463Z,76.57
2022-07-29T21:14:11.268Z,75.97
2022-07-29T21:16:37.476Z,76.14
2022-07-29T21:19:03.776Z,76.13
2022-07-29T21:21:29.981Z,75.68
2022-07-29T21:23:56.246Z,74.09
2022-07-29T21:26:24.547Z,74.14
2022-07-29T21:28:50.794Z,73.13
2022-07-29T21:31:17.044Z,71.92
2022-07-29T21:33:43.249Z,72.80
2022-07-29T21:36:44.008Z,73.25
2022-07-29T21:38:55.681Z,73.60
2022-07-29T21:41:24.136Z,73.92
2022-07-29T21:43:50.331Z,74.04
2022-07-29T21:46:16.652Z,74.58
2022-07-29T21:48:44.690Z,75.15
2022-07-29T21:51:11.060Z,76.78
2022-07-29T21:53:37.290Z,77.90
2022-07-29T21:56:06.138Z,78.74
2022-07-29T21:58:35.665Z,79.45
2022-07-29T22:01:05.962Z,80.31
2022-07-29T22:03:32.235Z,80.59
2022-07-29T22:05:58.507Z,81.01
2022-07-29T22:08:25.890Z,80.96
2022-07-29T22:10:52.058Z,81.78
2022-07-29T22:13:18.298Z,83.37
2022-07-29T22:15:47.204Z,83.41
2022-07-29T22:18:13.586Z,83.53
2022-07-29T22:20:46.715Z,83.35
2022-07-29T22:23:14.278Z,83.38
2022-07-29T22:25:47.718Z,84.04
2022-07-29T22:28:13.978Z,84.31
2022-07-29T22:30:43.346Z,84.51
2022-07-29T22:33:09.568Z,85.11
2022-07-29T22:35:43.781Z,85.41
2022-07-29T22:38:09.951Z,85.48
2022-07-29T22:40:36.115Z,86.47
2022-07-29T22:43:02.437Z,87.22
2022-07-29T22:45:28.644Z,87.25
2022-07-29T22:47:59.205Z,87.24
2022-07-29T22:50:25.748Z,87.64
2022-07-29T22:52:51.934Z,87.97
2022-07-29T22:55:18.131Z,88.68
2022-07-29T22:57:44.312Z,88.87
2022-07-29T23:00:10.509Z,90.07
2022-07-29T23:02:36.730Z,90.06
2022-07-29T23:05:02.957Z,90.62
2022-07-29T23:07:29.140Z,90.64
2022-07-29T23:09:55.326Z,91.26
2022-07-29T23:12:21.481Z,91.82
2022-07-29T23:14:47.666Z,92.78
2022-07-29T23:17:13.925Z,93.47
2022-07-29T23:19:40.163Z,93.09
2022-07-29T23:22:06.338Z,93.80
2022-07-29T23:24:32.507Z,94.73
2022-07-29T23:26:58.977Z,95.88
2022-07-29T23:29:25.760Z,96.41
2022-07-29T23:31:51.941Z,96.99
2022-07-29T23:34:18.112Z,97.18
2022-07-29T23:36:44.297Z,97.44
2022-07-29T23:39:10.507Z,98.29
2022-07-29T23:41:36.687Z,98.55
2022-07-29T23:44:02.899Z,99.00
2022-07-29T23:46:29.064Z,99.42
2022-07-29T23:48:55.301Z,99.74
2022-07-29T23:51:21.501Z,99.84
2022-07-29T23:53:53.773Z,100.00
2022-07-29T23:56:20.529Z,100.00
2022-07-29T23:58:46.824Z,100.00
